Time;durP1;ratioP1;P1;durP2;ratioP2;P2;SDS_P1;SDS_P2;PMS_P1;PMS_P2;Temp;Humidity;BMP_temperature;BMP_pressure;BME280_temperature;BME280_humidity;BME280_pressure;Samples;Min_cycle;Max_cycle;Signal;HPM_P1;HPM_P2
2023/06/10 00:01:47;;;;;;;;;;;14.50;99.90;;;;;;8353688;28;19920;-78
2023/06/10 00:05:47;;;;;;;;;;;14.10;99.90;;;;;;8330180;28;19916;-79
2023/06/10 00:09:48;;;;;;;;;;;14.00;99.90;;;;;;8334529;28;20000;-79
2023/06/10 00:13:48;;;;;;;;;;;14.20;99.90;;;;;;8356934;28;19909;-79
2023/06/10 00:17:49;;;;;;;;;;;14.10;99.90;;;;;;8347526;28;19917;-79
2023/06/10 00:21:51;;;;;;;;;;;13.90;99.90;;;;;;8341885;28;19917;-78
2023/06/10 00:25:51;;;;;;;;;;;13.50;99.90;;;;;;8336330;28;19913;-79
2023/06/10 00:29:51;;;;;;;;;;;13.20;99.90;;;;;;8326717;28;19917;-80
2023/06/10 00:33:52;;;;;;;;;;;12.90;99.90;;;;;;8324385;28;19959;-80
2023/06/10 00:37:52;;;;;;;;;;;12.70;99.90;;;;;;8361758;28;19913;-80
2023/06/10 00:41:53;;;;;;;;;;;12.50;99.90;;;;;;8351667;28;20004;-79
2023/06/10 00:45:53;;;;;;;;;;;12.60;99.90;;;;;;8356822;28;19917;-78
2023/06/10 00:49:54;;;;;;;;;;;12.20;99.90;;;;;;8356605;28;19916;-79
2023/06/10 00:53:55;;;;;;;;;;;12.30;99.90;;;;;;8371200;28;19912;-79
2023/06/10 00:57:55;;;;;;;;;;;12.30;99.90;;;;;;8327426;28;19913;-80
2023/06/10 01:01:56;;;;;;;;;;;12.20;99.90;;;;;;8334312;28;19913;-79
2023/06/10 01:06:01;;;;;;;;;;;12.20;99.90;;;;;;8357177;28;19909;-78
2023/06/10 01:10:05;;;;;;;;;;;11.90;99.90;;;;;;8348473;28;19958;-80
2023/06/10 01:14:07;;;;;;;;;;;11.80;99.90;;;;;;8356700;28;19919;-80
2023/06/10 01:18:09;;;;;;;;;;;11.70;99.90;;;;;;8349451;28;19916;-79
2023/06/10 01:22:10;;;;;;;;;;;11.40;99.90;;;;;;8341013;28;20313;-79
2023/06/10 01:26:11;;;;;;;;;;;11.30;99.90;;;;;;8339138;28;19909;-79
2023/06/10 01:30:15;;;;;;;;;;;11.20;99.90;;;;;;8346237;28;19917;-79
2023/06/10 01:34:17;;;;;;;;;;;11.00;99.90;;;;;;8358413;28;19913;-80
2023/06/10 01:38:19;;;;;;;;;;;10.90;99.90;;;;;;8360551;28;19959;-79
2023/06/10 01:42:20;;;;;;;;;;;11.00;99.90;;;;;;8339526;28;19916;-80
2023/06/10 01:46:21;;;;;;;;;;;11.00;99.90;;;;;;8332702;28;20424;-79
2023/06/10 01:50:21;;;;;;;;;;;10.90;99.90;;;;;;8334217;28;19969;-79
2023/06/10 01:54:22;;;;;;;;;;;10.80;99.90;;;;;;8356934;28;20539;-79
2023/06/10 01:58:22;;;;;;;;;;;10.80;99.90;;;;;;8339212;28;19928;-80
2023/06/10 02:02:23;;;;;;;;;;;10.80;99.90;;;;;;8350121;28;19913;-80
2023/06/10 02:06:24;;;;;;;;;;;10.80;99.90;;;;;;8329468;28;19909;-80
2023/06/10 02:10:25;;;;;;;;;;;10.50;99.90;;;;;;8331994;28;20439;-79
2023/06/10 02:14:25;;;;;;;;;;;10.80;99.90;;;;;;8333841;28;19909;-80
2023/06/10 02:18:26;;;;;;;;;;;10.60;99.90;;;;;;8343108;28;19924;-80
2023/06/10 02:22:27;;;;;;;;;;;10.90;99.90;;;;;;8339526;28;19923;-80
2023/06/10 02:26:27;;;;;;;;;;;11.20;99.90;;;;;;8355791;28;19908;-80
2023/06/10 02:30:28;;;;;;;;;;;11.20;99.90;;;;;;8338105;28;19909;-79
2023/06/10 02:34:28;;;;;;;;;;;10.90;99.90;;;;;;8357208;28;19919;-80
2023/06/10 02:38:29;;;;;;;;;;;10.50;99.90;;;;;;8333841;28;19920;-79
2023/06/10 02:42:29;;;;;;;;;;;10.30;99.90;;;;;;8365243;28;19916;-80
2023/06/10 02:46:30;;;;;;;;;;;10.30;99.90;;;;;;8346890;28;19963;-79
2023/06/10 02:50:30;;;;;;;;;;;10.50;99.90;;;;;;8339250;28;20012;-80
2023/06/10 02:54:31;;;;;;;;;;;10.40;99.90;;;;;;8363514;28;19992;-80
2023/06/10 02:58:32;;;;;;;;;;;10.20;99.90;;;;;;8357571;28;20389;-80
2023/06/10 03:02:32;;;;;;;;;;;10.00;99.90;;;;;;8338402;28;19917;-79
2023/06/10 03:06:36;;;;;;;;;;;10.10;99.90;;;;;;8347114;28;20016;-80
2023/06/10 03:10:36;;;;;;;;;;;10.20;99.90;;;;;;8339924;28;20300;-80
2023/06/10 03:14:38;;;;;;;;;;;10.30;99.90;;;;;;8362788;28;19916;-80
2023/06/10 03:18:39;;;;;;;;;;;10.30;99.90;;;;;;8338300;28;19920;-80
2023/06/10 03:22:40;;;;;;;;;;;10.30;99.90;;;;;;8337530;28;19923;-79
2023/06/10 03:26:40;;;;;;;;;;;10.20;99.90;;;;;;8361458;28;19908;-79
2023/06/10 03:30:41;;;;;;;;;;;10.10;99.90;;;;;;8360541;28;19908;-79
2023/06/10 03:34:41;;;;;;;;;;;10.00;99.90;;;;;;8333466;28;19913;-79
2023/06/10 03:38:41;;;;;;;;;;;10.00;99.90;;;;;;8363380;28;19970;-80
2023/06/10 03:42:43;;;;;;;;;;;10.00;99.90;;;;;;8332594;28;20008;-79
2023/06/10 03:46:44;;;;;;;;;;;9.90;99.90;;;;;;8350799;28;19913;-80
2023/06/10 03:50:44;;;;;;;;;;;10.10;99.90;;;;;;8346249;28;19958;-80
2023/06/10 03:54:45;;;;;;;;;;;10.30;99.90;;;;;;8363252;28;19920;-79
2023/06/10 03:58:45;;;;;;;;;;;10.40;99.90;;;;;;8332426;28;20420;-80
2023/06/10 04:02:47;;;;;;;;;;;10.70;99.90;;;;;;8338516;28;20351;-79
2023/06/10 04:06:48;;;;;;;;;;;10.90;99.90;;;;;;8336913;28;20372;-80
2023/06/10 04:10:49;;;;;;;;;;;11.50;99.90;;;;;;8342672;28;20373;-80
2023/06/10 04:14:51;;;;;;;;;;;12.00;99.90;;;;;;8334373;28;19947;-80
2023/06/10 04:18:51;;;;;;;;;;;12.50;99.90;;;;;;8339102;28;20471;-80
2023/06/10 04:22:52;;;;;;;;;;;12.90;99.90;;;;;;8331380;28;19925;-80
2023/06/10 04:26:52;;;;;;;;;;;13.80;99.90;;;;;;8345958;28;19917;-80
2023/06/10 04:30:53;;;;;;;;;;;14.40;99.90;;;;;;8346957;28;20011;-79
2023/06/10 04:34:53;;;;;;;;;;;14.40;99.90;;;;;;8330005;28;19916;-79
2023/06/10 04:38:54;;;;;;;;;;;15.50;99.90;;;;;;8321716;28;19917;-81
2023/06/10 04:42:54;;;;;;;;;;;16.20;99.90;;;;;;8339622;28;19913;-80
2023/06/10 04:46:55;;;;;;;;;;;16.10;99.90;;;;;;8339541;28;19915;-80
2023/06/10 04:50:56;;;;;;;;;;;16.80;99.90;;;;;;8337677;28;19943;-79
2023/06/10 04:55:00;;;;;;;;;;;17.00;99.90;;;;;;8353661;28;20356;-79
2023/06/10 04:59:00;;;;;;;;;;;17.10;99.90;;;;;;8339278;28;20270;-80
2023/06/10 05:03:01;;;;;;;;;;;17.90;99.90;;;;;;8323191;28;19917;-80
2023/06/10 05:07:01;;;;;;;;;;;17.90;99.90;;;;;;8333379;28;20029;-80
2023/06/10 05:11:01;;;;;;;;;;;19.00;99.90;;;;;;8350195;28;19999;-79
2023/06/10 05:15:02;;;;;;;;;;;19.40;99.90;;;;;;8349261;28;19913;-79
2023/06/10 05:19:04;;;;;;;;;;;19.60;99.90;;;;;;8357190;28;19912;-80
2023/06/10 05:23:05;;;;;;;;;;;19.70;99.90;;;;;;8337348;28;19920;-80
2023/06/10 05:27:06;;;;;;;;;;;20.10;99.90;;;;;;8348295;28;19917;-80
2023/06/10 05:31:07;;;;;;;;;;;20.60;99.90;;;;;;8329187;28;20176;-80
2023/06/10 05:35:07;;;;;;;;;;;20.50;99.90;;;;;;8331454;28;19912;-80
2023/06/10 05:39:08;;;;;;;;;;;20.70;99.90;;;;;;8331128;28;19920;-80
2023/06/10 05:43:09;;;;;;;;;;;20.50;99.90;;;;;;8334200;28;20324;-80
2023/06/10 05:47:09;;;;;;;;;;;20.60;99.90;;;;;;8348721;28;19958;-81
2023/06/10 05:51:10;;;;;;;;;;;21.00;99.90;;;;;;8337401;28;19935;-80
2023/06/10 05:55:11;;;;;;;;;;;21.50;99.90;;;;;;8338434;28;19960;-80
2023/06/10 05:59:11;;;;;;;;;;;21.80;99.90;;;;;;8344988;28;19923;-80
2023/06/10 06:03:11;;;;;;;;;;;22.10;99.90;;;;;;8339869;28;20289;-81
2023/06/10 06:07:12;;;;;;;;;;;22.60;99.90;;;;;;8339289;28;20428;-80
2023/06/10 06:11:13;;;;;;;;;;;22.70;99.90;;;;;;8353058;28;19999;-79
2023/06/10 06:15:14;;;;;;;;;;;23.00;99.90;;;;;;8337379;28;19935;-80
2023/06/10 06:19:15;;;;;;;;;;;23.00;99.90;;;;;;8351043;28;19925;-80
2023/06/10 06:23:16;;;;;;;;;;;22.70;99.90;;;;;;8338966;28;20435;-80
2023/06/10 06:27:16;;;;;;;;;;;22.90;99.90;;;;;;8357617;28;19913;-79
2023/06/10 06:31:17;;;;;;;;;;;23.30;99.90;;;;;;8339115;28;19924;-80
2023/06/10 06:35:17;;;;;;;;;;;24.00;99.90;;;;;;8344401;28;19913;-80
2023/06/10 06:39:18;;;;;;;;;;;24.10;99.90;;;;;;8341936;28;20654;-81
2023/06/10 06:43:18;;;;;;;;;;;24.90;99.90;;;;;;8340160;28;20569;-81
2023/06/10 06:47:19;;;;;;;;;;;25.70;99.90;;;;;;8349375;28;19921;-81
2023/06/10 06:51:20;;;;;;;;;;;25.70;99.90;;;;;;8346085;28;19909;-80
2023/06/10 06:55:20;;;;;;;;;;;25.30;99.90;;;;;;8338457;28;20411;-80
2023/06/10 06:59:21;;;;;;;;;;;24.70;99.90;;;;;;8339797;28;19917;-80
2023/06/10 07:03:21;;;;;;;;;;;24.20;99.90;;;;;;8335176;28;19913;-80
2023/06/10 07:07:22;;;;;;;;;;;24.30;99.90;;;;;;8329242;28;19971;-81
2023/06/10 07:11:22;;;;;;;;;;;24.30;99.90;;;;;;8359819;28;19928;-81
2023/06/10 07:15:23;;;;;;;;;;;24.40;99.90;;;;;;8322870;28;20381;-81
2023/06/10 07:19:23;;;;;;;;;;;24.70;99.90;;;;;;8348479;28;19921;-79
2023/06/10 07:23:24;;;;;;;;;;;25.00;99.90;;;;;;8332161;28;19925;-80
2023/06/10 07:27:24;;;;;;;;;;;24.80;99.90;;;;;;8341094;28;19913;-80
2023/06/10 07:31:25;;;;;;;;;;;24.80;99.90;;;;;;8356765;28;20130;-80
2023/06/10 07:35:25;;;;;;;;;;;24.90;99.90;;;;;;8351996;28;19912;-82
2023/06/10 07:39:26;;;;;;;;;;;25.70;99.90;;;;;;8335220;28;19917;-81
2023/06/10 07:43:26;;;;;;;;;;;26.50;99.90;;;;;;8349763;28;20389;-81
2023/06/10 07:47:27;;;;;;;;;;;27.10;99.90;;;;;;8335124;28;19917;-81
2023/06/10 07:51:27;;;;;;;;;;;26.80;99.90;;;;;;8333299;28;19920;-79
2023/06/10 07:55:28;;;;;;;;;;;26.10;99.90;;;;;;8331365;28;20569;-79
2023/06/10 07:59:29;;;;;;;;;;;26.10;99.90;;;;;;8328944;28;20293;-81
2023/06/10 08:03:29;;;;;;;;;;;26.60;99.90;;;;;;8333534;28;19913;-81
2023/06/10 08:07:30;;;;;;;;;;;26.60;99.90;;;;;;8351065;28;19913;-81
2023/06/10 08:11:31;;;;;;;;;;;26.60;99.90;;;;;;8346463;28;20374;-80
2023/06/10 08:15:31;;;;;;;;;;;25.70;99.90;;;;;;8339763;28;19912;-80
2023/06/10 08:19:32;;;;;;;;;;;25.80;99.90;;;;;;8326935;28;19932;-80
2023/06/10 08:23:32;;;;;;;;;;;26.50;99.90;;;;;;8350327;28;19921;-80
2023/06/10 08:27:33;;;;;;;;;;;27.20;99.70;;;;;;8327568;28;19919;-81
2023/06/10 08:31:33;;;;;;;;;;;27.50;99.00;;;;;;8353221;28;19912;-81
2023/06/10 08:35:34;;;;;;;;;;;27.50;99.50;;;;;;8360923;28;19912;-80
2023/06/10 08:39:34;;;;;;;;;;;27.40;99.00;;;;;;8347403;28;19926;-81
2023/06/10 08:43:43;;;;;;;;;;;27.30;99.00;;;;;;8353230;28;19920;-79
2023/06/10 08:47:45;;;;;;;;;;;26.70;99.90;;;;;;8350522;28;19913;-80
2023/06/10 08:51:47;;;;;;;;;;;26.00;99.90;;;;;;8350244;28;19913;-81
2023/06/10 08:55:51;;;;;;;;;;;25.30;99.90;;;;;;8347681;28;19913;-80
2023/06/10 08:59:56;;;;;;;;;;;25.60;99.90;;;;;;8353042;28;19924;-80
2023/06/10 09:03:58;;;;;;;;;;;25.80;99.90;;;;;;8328604;28;20008;-81
2023/06/10 09:08:00;;;;;;;;;;;26.30;99.90;;;;;;8342302;28;19919;-81
2023/06/10 09:12:00;;;;;;;;;;;27.20;99.90;;;;;;8337899;28;19913;-80
2023/06/10 09:16:02;;;;;;;;;;;27.90;99.90;;;;;;8354157;28;20512;-81
2023/06/10 09:20:02;;;;;;;;;;;28.70;97.00;;;;;;8359137;28;20416;-81
2023/06/10 09:24:03;;;;;;;;;;;28.40;96.00;;;;;;8336305;28;20020;-81
2023/06/10 09:28:04;;;;;;;;;;;28.30;96.00;;;;;;8338176;28;19959;-80
2023/06/10 09:32:05;;;;;;;;;;;27.10;96.50;;;;;;8330123;28;19920;-80
2023/06/10 09:36:05;;;;;;;;;;;26.50;99.00;;;;;;8337200;28;19994;-79
2023/06/10 09:40:07;;;;;;;;;;;26.00;97.00;;;;;;8354581;28;19921;-80
2023/06/10 09:44:12;;;;;;;;;;;26.20;99.90;;;;;;8345155;28;19928;-78
2023/06/10 09:48:12;;;;;;;;;;;26.20;98.10;;;;;;8338713;28;19979;-80
2023/06/10 09:52:13;;;;;;;;;;;25.90;99.90;;;;;;8354588;28;19917;-80
2023/06/10 09:56:13;;;;;;;;;;;26.00;99.90;;;;;;8348726;28;19920;-79
2023/06/10 10:00:14;;;;;;;;;;;26.40;97.70;;;;;;8353043;28;20286;-81
2023/06/10 10:04:22;;;;;;;;;;;25.20;98.60;;;;;;8346324;28;19923;-80
2023/06/10 10:08:23;;;;;;;;;;;24.90;99.90;;;;;;8337440;28;19962;-80
2023/06/10 10:12:24;;;;;;;;;;;25.70;99.90;;;;;;8328802;28;19913;-80
2023/06/10 10:16:27;;;;;;;;;;;26.60;97.70;;;;;;8321036;28;21255;-79
2023/06/10 10:20:29;;;;;;;;;;;25.80;98.40;;;;;;8333537;28;19951;-79
2023/06/10 10:24:46;;;;;;;;;;;26.30;97.00;;;;;;8350556;28;19923;-80
2023/06/10 10:28:53;;;;;;;;;;;26.20;97.20;;;;;;8333363;28;19916;-80
2023/06/10 10:32:57;;;;;;;;;;;26.70;95.70;;;;;;8344673;28;20389;-80
2023/06/10 10:36:58;;;;;;;;;;;25.60;96.60;;;;;;8353519;28;19939;-79
2023/06/10 10:41:00;;;;;;;;;;;25.00;98.00;;;;;;8335837;28;19984;-80
2023/06/10 10:45:01;;;;;;;;;;;26.10;96.70;;;;;;8337577;28;19944;-78
2023/06/10 10:49:02;;;;;;;;;;;27.30;94.50;;;;;;8358770;28;20276;-79
2023/06/10 10:53:03;;;;;;;;;;;28.00;96.80;;;;;;8358337;28;19913;-78
2023/06/10 10:57:13;;;;;;;;;;;28.20;93.20;;;;;;8350078;28;19913;-80
2023/06/10 11:01:14;;;;;;;;;;;27.90;92.90;;;;;;8362654;28;19958;-80
2023/06/10 11:05:15;;;;;;;;;;;27.10;93.90;;;;;;8338680;28;19917;-79
2023/06/10 11:09:25;;;;;;;;;;;27.80;94.80;;;;;;8334115;28;19962;-79
2023/06/10 11:13:26;;;;;;;;;;;28.10;90.50;;;;;;8333640;28;19981;-81
2023/06/10 11:17:26;;;;;;;;;;;26.80;92.20;;;;;;8334584;28;19960;-80
2023/06/10 11:21:27;;;;;;;;;;;26.70;93.30;;;;;;8340395;28;19921;-79
2023/06/10 11:25:38;;;;;;;;;;;28.50;89.40;;;;;;8345663;28;19921;-77
2023/06/10 11:29:38;;;;;;;;;;;29.40;85.80;;;;;;8360392;28;19983;-80
2023/06/10 11:33:39;;;;;;;;;;;29.10;85.70;;;;;;8361924;28;19970;-81
2023/06/10 11:37:40;;;;;;;;;;;27.70;87.10;;;;;;8338342;28;20280;-79
2023/06/10 11:41:41;;;;;;;;;;;26.70;91.80;;;;;;8359480;28;19935;-78
2023/06/10 11:45:41;;;;;;;;;;;26.90;90.90;;;;;;8340548;28;19909;-79
2023/06/10 11:49:42;;;;;;;;;;;26.20;91.60;;;;;;8335684;28;20296;-81
2023/06/10 11:53:45;;;;;;;;;;;27.80;91.30;;;;;;8355991;28;19913;-79
2023/06/10 11:57:46;;;;;;;;;;;27.40;88.30;;;;;;8359412;28;20580;-79
2023/06/10 12:01:46;;;;;;;;;;;27.10;90.40;;;;;;8362458;28;19913;-78
2023/06/10 12:05:57;;;;;;;;;;;28.60;90.10;;;;;;8356225;28;20579;-79
2023/06/10 12:10:00;;;;;;;;;;;27.30;90.40;;;;;;8328582;28;19978;-77
2023/06/10 12:14:03;;;;;;;;;;;27.70;89.60;;;;;;8348886;28;19991;-81
2023/06/10 12:18:04;;;;;;;;;;;26.70;90.40;;;;;;8331647;28;19917;-80
2023/06/10 12:22:04;;;;;;;;;;;26.90;90.50;;;;;;8338348;28;19924;-81
2023/06/10 12:26:05;;;;;;;;;;;29.30;91.30;;;;;;8341745;28;19916;-79
2023/06/10 12:30:06;;;;;;;;;;;31.00;79.50;;;;;;8339267;28;19913;-78
2023/06/10 12:34:07;;;;;;;;;;;29.40;80.90;;;;;;8333326;28;19927;-80
2023/06/10 12:38:08;;;;;;;;;;;28.10;83.30;;;;;;8348497;28;19921;-81
2023/06/10 12:42:09;;;;;;;;;;;28.60;84.40;;;;;;8358295;28;19956;-80
2023/06/10 12:46:12;;;;;;;;;;;27.10;88.40;;;;;;8352267;28;19912;-80
2023/06/10 12:50:12;;;;;;;;;;;29.10;86.40;;;;;;8356099;28;19917;-79
2023/06/10 12:54:13;;;;;;;;;;;31.00;79.20;;;;;;8354707;28;19952;-81
2023/06/10 12:58:13;;;;;;;;;;;31.20;76.70;;;;;;8335801;28;19921;-80
2023/06/10 13:02:14;;;;;;;;;;;33.20;72.30;;;;;;8337611;28;19920;-81
2023/06/10 13:06:14;;;;;;;;;;;33.00;68.70;;;;;;8346160;28;19963;-79
2023/06/10 13:10:16;;;;;;;;;;;33.00;66.50;;;;;;8349315;28;19913;-81
2023/06/10 13:14:16;;;;;;;;;;;34.30;62.20;;;;;;8339441;28;19952;-80
2023/06/10 13:18:18;;;;;;;;;;;33.10;62.00;;;;;;8334856;28;19970;-82
2023/06/10 13:22:20;;;;;;;;;;;32.50;65.90;;;;;;8338488;28;20599;-79
2023/06/10 13:26:20;;;;;;;;;;;32.40;65.70;;;;;;8340114;28;20440;-81
2023/06/10 13:30:21;;;;;;;;;;;31.90;68.70;;;;;;8337192;28;19924;-80
2023/06/10 13:34:21;;;;;;;;;;;32.20;68.50;;;;;;8336440;28;20039;-81
2023/06/10 13:38:22;;;;;;;;;;;32.60;68.10;;;;;;8333528;28;20324;-82
2023/06/10 13:42:22;;;;;;;;;;;33.30;64.20;;;;;;8347521;28;20270;-79
2023/06/10 13:46:23;;;;;;;;;;;33.70;59.30;;;;;;8352117;28;20555;-78
2023/06/10 13:50:23;;;;;;;;;;;32.80;61.50;;;;;;8350562;28;19939;-79
2023/06/10 13:54:24;;;;;;;;;;;32.70;60.70;;;;;;8351505;28;19916;-79
2023/06/10 13:58:24;;;;;;;;;;;32.90;59.60;;;;;;8329152;28;19913;-80
2023/06/10 14:02:25;;;;;;;;;;;32.20;63.50;;;;;;8326645;28;20006;-78
2023/06/10 14:06:26;;;;;;;;;;;33.00;62.90;;;;;;8343404;28;20402;-77
2023/06/10 14:10:26;;;;;;;;;;;33.00;61.10;;;;;;8350714;28;19913;-78
2023/06/10 14:14:27;;;;;;;;;;;30.20;65.20;;;;;;8343195;28;20375;-78
2023/06/10 14:18:27;;;;;;;;;;;30.00;66.90;;;;;;8346791;28;19917;-78
2023/06/10 14:22:27;;;;;;;;;;;34.20;60.70;;;;;;8336604;28;20004;-78
2023/06/10 14:26:28;;;;;;;;;;;33.80;59.50;;;;;;8360497;28;19909;-77
2023/06/10 14:30:28;;;;;;;;;;;31.90;64.20;;;;;;8353667;28;19913;-78
2023/06/10 14:34:33;;;;;;;;;;;30.90;65.80;;;;;;8358551;28;19959;-77
2023/06/10 14:38:33;;;;;;;;;;;30.70;66.10;;;;;;8356709;28;19920;-77
2023/06/10 14:42:34;;;;;;;;;;;29.90;64.80;;;;;;8358045;28;19959;-77
2023/06/10 14:46:34;;;;;;;;;;;30.80;64.90;;;;;;8355984;28;19919;-78
2023/06/10 14:50:35;;;;;;;;;;;32.60;64.60;;;;;;8352306;28;19910;-78
2023/06/10 14:54:35;;;;;;;;;;;33.60;61.10;;;;;;8351759;28;20649;-77
2023/06/10 14:58:36;;;;;;;;;;;33.00;61.60;;;;;;8351747;28;19920;-77
2023/06/10 15:02:36;;;;;;;;;;;32.40;60.60;;;;;;8358333;28;19928;-78
2023/06/10 15:06:37;;;;;;;;;;;32.50;62.40;;;;;;8356096;28;19917;-77
2023/06/10 15:10:37;;;;;;;;;;;33.30;61.40;;;;;;8338741;28;19959;-78
2023/06/10 15:14:37;;;;;;;;;;;34.20;59.40;;;;;;8356154;28;19916;-77
2023/06/10 15:18:38;;;;;;;;;;;33.00;60.30;;;;;;8354879;28;19921;-78
2023/06/10 15:22:38;;;;;;;;;;;29.60;67.90;;;;;;8337304;28;19920;-78
2023/06/10 15:26:39;;;;;;;;;;;27.00;76.40;;;;;;8352926;28;19960;-77
2023/06/10 15:30:39;;;;;;;;;;;28.80;71.80;;;;;;8352887;28;19913;-78
2023/06/10 15:34:40;;;;;;;;;;;29.70;69.50;;;;;;8337025;28;19956;-77
2023/06/10 15:38:40;;;;;;;;;;;28.90;70.90;;;;;;8335038;28;19921;-77
2023/06/10 15:42:41;;;;;;;;;;;28.90;69.80;;;;;;8358923;28;19992;-79
2023/06/10 15:46:42;;;;;;;;;;;28.40;68.70;;;;;;8355637;28;19913;-77
2023/06/10 15:50:44;;;;;;;;;;;27.20;73.00;;;;;;8355365;28;19923;-77
2023/06/10 15:54:45;;;;;;;;;;;26.40;75.60;;;;;;8355022;28;20031;-77
2023/06/10 15:58:45;;;;;;;;;;;26.20;78.90;;;;;;8350818;28;19924;-78
2023/06/10 16:02:46;;;;;;;;;;;26.00;80.00;;;;;;8354893;28;20535;-76
2023/06/10 16:06:48;;;;;;;;;;;25.80;81.90;;;;;;8352904;28;19909;-76
2023/06/10 16:10:48;;;;;;;;;;;25.20;83.70;;;;;;8353120;28;19915;-78
2023/06/10 16:14:49;;;;;;;;;;;24.70;85.70;;;;;;8348128;28;20283;-78
2023/06/10 16:18:49;;;;;;;;;;;24.80;87.70;;;;;;8353744;28;19913;-79
2023/06/10 16:22:50;;;;;;;;;;;25.20;85.70;;;;;;8355996;28;19955;-77
2023/06/10 16:26:50;;;;;;;;;;;25.30;85.90;;;;;;8355205;28;19935;-77
2023/06/10 16:30:51;;;;;;;;;;;25.10;86.40;;;;;;8348060;28;19916;-76
2023/06/10 16:34:51;;;;;;;;;;;25.30;86.40;;;;;;8351788;28;19920;-77
2023/06/10 16:38:54;;;;;;;;;;;25.10;87.40;;;;;;8351513;28;20401;-77
2023/06/10 16:42:54;;;;;;;;;;;25.00;85.70;;;;;;8345932;28;19909;-77
2023/06/10 16:46:55;;;;;;;;;;;24.80;85.40;;;;;;8355100;28;19912;-78
2023/06/10 16:50:55;;;;;;;;;;;24.60;85.80;;;;;;8353255;28;19909;-78
2023/06/10 16:54:56;;;;;;;;;;;24.70;86.20;;;;;;8317180;28;20399;-78
2023/06/10 16:58:57;;;;;;;;;;;24.80;85.70;;;;;;8347438;28;19917;-78
2023/06/10 17:02:57;;;;;;;;;;;24.70;86.80;;;;;;8353400;28;19919;-77
2023/06/10 17:06:58;;;;;;;;;;;24.40;86.70;;;;;;8355303;28;19912;-76
2023/06/10 17:10:58;;;;;;;;;;;24.30;87.70;;;;;;8347087;28;20301;-76
2023/06/10 17:14:59;;;;;;;;;;;23.80;89.80;;;;;;8330298;28;20383;-77
2023/06/10 17:18:59;;;;;;;;;;;23.70;90.60;;;;;;8354957;28;20339;-77
2023/06/10 17:23:00;;;;;;;;;;;23.60;89.40;;;;;;8357019;28;19917;-77
2023/06/10 17:27:00;;;;;;;;;;;23.70;90.30;;;;;;8338506;28;19920;-77
2023/06/10 17:31:02;;;;;;;;;;;23.60;90.40;;;;;;8347768;28;20243;-77
2023/06/10 17:35:03;;;;;;;;;;;23.50;90.40;;;;;;8343240;28;20706;-78
2023/06/10 17:39:04;;;;;;;;;;;23.50;90.00;;;;;;8343746;28;19928;-77
2023/06/10 17:43:05;;;;;;;;;;;23.50;90.90;;;;;;8357098;28;19909;-78
2023/06/10 17:47:05;;;;;;;;;;;23.50;90.80;;;;;;8343223;28;19920;-77
2023/06/10 17:51:06;;;;;;;;;;;23.30;90.90;;;;;;8348129;28;20361;-77
2023/06/10 17:55:06;;;;;;;;;;;23.40;91.40;;;;;;8358274;28;19955;-77
2023/06/10 17:59:07;;;;;;;;;;;23.10;92.10;;;;;;8359197;28;19924;-77
2023/06/10 18:03:07;;;;;;;;;;;23.20;91.20;;;;;;8349768;28;19924;-77
2023/06/10 18:07:08;;;;;;;;;;;23.10;91.70;;;;;;8363651;28;19913;-77
2023/06/10 18:11:08;;;;;;;;;;;22.90;92.60;;;;;;8341528;28;20440;-77
2023/06/10 18:15:09;;;;;;;;;;;23.00;92.80;;;;;;8347333;28;20453;-78
2023/06/10 18:19:09;;;;;;;;;;;23.00;92.90;;;;;;8365174;28;20412;-77
2023/06/10 18:23:10;;;;;;;;;;;23.30;93.00;;;;;;8338898;28;20258;-77
2023/06/10 18:27:11;;;;;;;;;;;23.30;92.90;;;;;;8369022;28;19917;-77
2023/06/10 18:31:11;;;;;;;;;;;23.40;92.50;;;;;;8362810;28;20121;-77
2023/06/10 18:35:12;;;;;;;;;;;23.10;92.90;;;;;;8357416;28;19916;-77
2023/06/10 18:39:13;;;;;;;;;;;22.90;92.40;;;;;;8358273;28;19947;-77
2023/06/10 18:43:13;;;;;;;;;;;22.70;93.40;;;;;;8359477;28;19923;-77
2023/06/10 18:47:14;;;;;;;;;;;22.40;95.00;;;;;;8364278;28;19921;-77
2023/06/10 18:51:14;;;;;;;;;;;22.00;94.90;;;;;;8357309;28;19952;-77
2023/06/10 18:55:15;;;;;;;;;;;21.80;95.70;;;;;;8349421;28;20011;-77
2023/06/10 18:59:15;;;;;;;;;;;21.70;95.90;;;;;;8353103;28;19932;-77
2023/06/10 19:03:16;;;;;;;;;;;21.60;96.80;;;;;;8355575;28;19924;-77
2023/06/10 19:07:16;;;;;;;;;;;21.40;98.00;;;;;;8352454;28;19970;-77
2023/06/10 19:11:17;;;;;;;;;;;20.90;98.50;;;;;;8352586;28;20308;-77
2023/06/10 19:15:17;;;;;;;;;;;20.70;99.30;;;;;;8350705;28;19970;-78
2023/06/10 19:19:17;;;;;;;;;;;20.70;98.70;;;;;;8356098;28;19928;-77
2023/06/10 19:23:18;;;;;;;;;;;20.90;97.90;;;;;;8351706;28;19963;-77
2023/06/10 19:27:19;;;;;;;;;;;20.70;98.80;;;;;;8359926;28;19913;-76
2023/06/10 19:31:19;;;;;;;;;;;20.70;98.60;;;;;;8351088;28;19944;-77
2023/06/10 19:35:20;;;;;;;;;;;20.30;99.00;;;;;;8350058;28;19921;-77
2023/06/10 19:39:20;;;;;;;;;;;20.20;98.90;;;;;;8344241;28;19933;-77
2023/06/10 19:43:21;;;;;;;;;;;19.90;99.80;;;;;;8349239;28;19977;-76
2023/06/10 19:47:21;;;;;;;;;;;19.80;99.70;;;;;;8340190;28;19913;-77
2023/06/10 19:51:21;;;;;;;;;;;19.70;99.90;;;;;;8356328;28;19928;-76
2023/06/10 19:55:22;;;;;;;;;;;19.60;99.90;;;;;;8336552;28;19909;-77
2023/06/10 19:59:22;;;;;;;;;;;19.40;99.90;;;;;;8348661;28;19912;-76
2023/06/10 20:03:23;;;;;;;;;;;19.20;99.90;;;;;;8336082;28;19964;-77
2023/06/10 20:07:23;;;;;;;;;;;19.30;99.90;;;;;;8355293;28;19917;-77
2023/06/10 20:11:25;;;;;;;;;;;19.10;99.90;;;;;;8355820;28;19913;-77
2023/06/10 20:15:25;;;;;;;;;;;18.90;99.90;;;;;;8333538;28;20400;-76
2023/06/10 20:19:25;;;;;;;;;;;18.70;99.90;;;;;;8355459;28;19921;-77
2023/06/10 20:23:26;;;;;;;;;;;19.00;99.90;;;;;;8353991;28;20014;-77
2023/06/10 20:27:26;;;;;;;;;;;18.60;99.90;;;;;;8332332;28;19912;-77
2023/06/10 20:31:27;;;;;;;;;;;18.60;99.90;;;;;;8359513;28;19917;-77
2023/06/10 20:35:27;;;;;;;;;;;18.50;99.90;;;;;;8358689;28;19925;-77
2023/06/10 20:39:28;;;;;;;;;;;18.60;99.90;;;;;;8353289;28;19913;-76
2023/06/10 20:43:28;;;;;;;;;;;18.50;99.90;;;;;;8353427;28;20285;-77
2023/06/10 20:47:29;;;;;;;;;;;18.50;99.90;;;;;;8354556;28;19909;-77
2023/06/10 20:51:30;;;;;;;;;;;18.10;99.90;;;;;;8352500;28;20275;-76
2023/06/10 20:55:30;;;;;;;;;;;18.00;99.90;;;;;;8347694;28;20360;-77
2023/06/10 20:59:31;;;;;;;;;;;18.30;99.90;;;;;;8352152;28;20397;-77
2023/06/10 21:03:31;;;;;;;;;;;18.20;99.90;;;;;;8333654;28;21266;-77
2023/06/10 21:07:31;;;;;;;;;;;17.90;99.90;;;;;;8347451;28;20016;-76
2023/06/10 21:11:32;;;;;;;;;;;17.70;99.90;;;;;;8352741;28;19913;-76
2023/06/10 21:15:32;;;;;;;;;;;17.30;99.90;;;;;;8339229;28;19955;-76
2023/06/10 21:19:33;;;;;;;;;;;16.90;99.90;;;;;;8349521;28;19921;-77
2023/06/10 21:23:33;;;;;;;;;;;16.60;99.90;;;;;;8355284;28;19943;-76
2023/06/10 21:27:34;;;;;;;;;;;16.80;99.90;;;;;;8351619;28;19958;-76
2023/06/10 21:31:34;;;;;;;;;;;16.70;99.90;;;;;;8350541;28;19921;-80
2023/06/10 21:35:35;;;;;;;;;;;16.60;99.90;;;;;;8352360;28;19912;-78
2023/06/10 21:39:35;;;;;;;;;;;16.40;99.90;;;;;;8352397;28;19913;-79
2023/06/10 21:43:36;;;;;;;;;;;16.10;99.90;;;;;;8353776;28;19920;-79
2023/06/10 21:47:37;;;;;;;;;;;16.20;99.90;;;;;;8352578;28;19916;-79
2023/06/10 21:51:37;;;;;;;;;;;16.10;99.90;;;;;;8324498;28;19960;-79
2023/06/10 21:55:38;;;;;;;;;;;16.10;99.90;;;;;;8353593;28;20047;-79
2023/06/10 21:59:40;;;;;;;;;;;16.10;99.90;;;;;;8352839;28;19920;-78
2023/06/10 22:03:40;;;;;;;;;;;16.40;99.90;;;;;;8350926;28;19938;-78
2023/06/10 22:07:41;;;;;;;;;;;16.30;99.90;;;;;;8322987;28;20341;-78
2023/06/10 22:11:42;;;;;;;;;;;16.10;99.90;;;;;;8322893;28;19920;-78
2023/06/10 22:15:43;;;;;;;;;;;16.00;99.90;;;;;;8351426;28;19958;-78
2023/06/10 22:19:44;;;;;;;;;;;16.50;99.90;;;;;;8348279;28;20007;-78
2023/06/10 22:23:44;;;;;;;;;;;16.30;99.90;;;;;;8347904;28;19967;-78
2023/06/10 22:27:45;;;;;;;;;;;16.30;99.90;;;;;;8345599;28;19913;-77
2023/06/10 22:31:45;;;;;;;;;;;16.20;99.90;;;;;;8345811;28;20345;-78
2023/06/10 22:35:46;;;;;;;;;;;16.90;99.90;;;;;;8352169;28;20395;-78
2023/06/10 22:39:46;;;;;;;;;;;15.90;99.90;;;;;;8351619;28;19940;-78
2023/06/10 22:43:47;;;;;;;;;;;16.50;99.90;;;;;;8332157;28;20301;-78
2023/06/10 22:47:47;;;;;;;;;;;16.20;99.90;;;;;;8353253;28;20427;-78
2023/06/10 22:51:48;;;;;;;;;;;15.90;99.90;;;;;;8326902;28;20428;-79
2023/06/10 22:55:48;;;;;;;;;;;15.90;99.90;;;;;;8357714;28;19909;-78
2023/06/10 22:59:49;;;;;;;;;;;16.10;99.90;;;;;;8351158;28;19917;-78
2023/06/10 23:03:49;;;;;;;;;;;15.80;99.90;;;;;;8342233;28;19916;-79
2023/06/10 23:07:50;;;;;;;;;;;16.00;99.90;;;;;;8340482;28;19912;-79
2023/06/10 23:11:50;;;;;;;;;;;15.80;99.90;;;;;;8355551;28;19916;-77
2023/06/10 23:15:52;;;;;;;;;;;15.50;99.90;;;;;;8361556;28;19917;-78
2023/06/10 23:19:52;;;;;;;;;;;15.40;99.90;;;;;;8361671;28;19919;-78